sensor_id;sensor_type;location;lat;lon;timestamp;pressure;altitude;pressure_sealevel;temperature;humidity
65010;BME280;51556;50.002;22.014;2023-03-15T00:01:58;97715.49;;;13.73;50.08
65010;BME280;51556;50.002;22.014;2023-03-15T00:04:23;97716.86;;;13.68;50.12
65010;BME280;51556;50.002;22.014;2023-03-15T00:06:50;97717.16;;;13.69;50.21
65010;BME280;51556;50.002;22.014;2023-03-15T00:09:15;97718.40;;;13.66;50.10
65010;BME280;51556;50.002;22.014;2023-03-15T00:11:41;97727.66;;;13.65;50.18
65010;BME280;51556;50.002;22.014;2023-03-15T00:14:06;97732.11;;;13.68;50.02
65010;BME280;51556;50.002;22.014;2023-03-15T00:16:32;97732.73;;;13.69;50.14
65010;BME280;51556;50.002;22.014;2023-03-15T00:18:57;97732.08;;;13.71;50.24
65010;BME280;51556;50.002;22.014;2023-03-15T00:21:23;97732.35;;;13.69;50.64
65010;BME280;51556;50.002;22.014;2023-03-15T00:23:48;97735.64;;;13.65;50.35
65010;BME280;51556;50.002;22.014;2023-03-15T00:26:14;97741.23;;;13.61;50.99
65010;BME280;51556;50.002;22.014;2023-03-15T00:28:40;97740.39;;;13.52;51.02
65010;BME280;51556;50.002;22.014;2023-03-15T00:31:16;97743.40;;;13.43;51.23
65010;BME280;51556;50.002;22.014;2023-03-15T00:33:42;97745.55;;;13.34;51.64
65010;BME280;51556;50.002;22.014;2023-03-15T00:36:09;97750.32;;;13.28;51.79
65010;BME280;51556;50.002;22.014;2023-03-15T00:38:35;97755.40;;;13.23;51.67
65010;BME280;51556;50.002;22.014;2023-03-15T00:41:09;97757.92;;;13.17;51.73
65010;BME280;51556;50.002;22.014;2023-03-15T00:43:35;97758.39;;;13.09;52.04
65010;BME280;51556;50.002;22.014;2023-03-15T00:46:01;97752.41;;;12.97;52.44
65010;BME280;51556;50.002;22.014;2023-03-15T00:48:27;97759.59;;;12.89;52.42
65010;BME280;51556;50.002;22.014;2023-03-15T00:51:13;97765.98;;;12.83;52.59
65010;BME280;51556;50.002;22.014;2023-03-15T00:53:41;97767.44;;;12.70;52.83
65010;BME280;51556;50.002;22.014;2023-03-15T00:56:13;97766.38;;;12.61;53.11
65010;BME280;51556;50.002;22.014;2023-03-15T00:58:39;97768.17;;;12.52;53.13
65010;BME280;51556;50.002;22.014;2023-03-15T01:01:17;97767.98;;;12.46;53.58
65010;BME280;51556;50.002;22.014;2023-03-15T01:03:43;97769.73;;;12.37;53.53
65010;BME280;51556;50.002;22.014;2023-03-15T01:06:12;97774.01;;;12.30;53.81
65010;BME280;51556;50.002;22.014;2023-03-15T01:08:38;97771.77;;;12.29;53.82
65010;BME280;51556;50.002;22.014;2023-03-15T01:11:07;97774.88;;;12.31;53.92
65010;BME280;51556;50.002;22.014;2023-03-15T01:13:34;97782.88;;;12.32;54.02
65010;BME280;51556;50.002;22.014;2023-03-15T01:16:00;97788.40;;;12.35;53.92
65010;BME280;51556;50.002;22.014;2023-03-15T01:18:26;97800.59;;;12.34;53.84
65010;BME280;51556;50.002;22.014;2023-03-15T01:20:51;97804.16;;;12.34;53.85
65010;BME280;51556;50.002;22.014;2023-03-15T01:23:16;97809.30;;;12.37;53.75
65010;BME280;51556;50.002;22.014;2023-03-15T01:25:42;97803.20;;;12.35;53.73
65010;BME280;51556;50.002;22.014;2023-03-15T01:28:07;97805.13;;;12.35;53.80
65010;BME280;51556;50.002;22.014;2023-03-15T01:30:33;97807.65;;;12.34;53.73
65010;BME280;51556;50.002;22.014;2023-03-15T01:32:58;97814.73;;;12.31;53.78
65010;BME280;51556;50.002;22.014;2023-03-15T01:35:24;97824.21;;;12.20;54.02
65010;BME280;51556;50.002;22.014;2023-03-15T01:37:50;97829.72;;;12.16;53.87
65010;BME280;51556;50.002;22.014;2023-03-15T01:40:16;97829.80;;;12.14;53.91
65010;BME280;51556;50.002;22.014;2023-03-15T01:42:52;97837.18;;;12.12;54.13
65010;BME280;51556;50.002;22.014;2023-03-15T01:48:25;97835.66;;;12.07;54.26
65010;BME280;51556;50.002;22.014;2023-03-15T01:50:52;97835.42;;;12.05;54.23
65010;BME280;51556;50.002;22.014;2023-03-15T01:53:21;97833.68;;;12.05;54.27
65010;BME280;51556;50.002;22.014;2023-03-15T01:55:47;97832.97;;;12.02;54.53
65010;BME280;51556;50.002;22.014;2023-03-15T01:58:13;97830.95;;;12.00;54.68
65010;BME280;51556;50.002;22.014;2023-03-15T02:00:39;97835.95;;;11.96;54.89
65010;BME280;51556;50.002;22.014;2023-03-15T02:03:09;97840.46;;;11.94;55.29
65010;BME280;51556;50.002;22.014;2023-03-15T02:05:48;97841.48;;;11.88;55.76
65010;BME280;51556;50.002;22.014;2023-03-15T02:08:20;97845.31;;;11.76;56.66
65010;BME280;51556;50.002;22.014;2023-03-15T02:10:50;97846.59;;;11.68;56.99
65010;BME280;51556;50.002;22.014;2023-03-15T02:13:19;97851.02;;;11.65;57.24
65010;BME280;51556;50.002;22.014;2023-03-15T02:15:49;97856.70;;;11.57;57.79
65010;BME280;51556;50.002;22.014;2023-03-15T02:18:18;97862.27;;;11.49;58.03
65010;BME280;51556;50.002;22.014;2023-03-15T02:20:59;97863.87;;;11.39;58.55
65010;BME280;51556;50.002;22.014;2023-03-15T02:23:27;97870.21;;;11.35;58.77
65010;BME280;51556;50.002;22.014;2023-03-15T02:28:45;97878.24;;;11.23;59.27
65010;BME280;51556;50.002;22.014;2023-03-15T02:31:11;97885.75;;;11.14;59.63
65010;BME280;51556;50.002;22.014;2023-03-15T02:33:43;97885.46;;;11.06;60.09
65010;BME280;51556;50.002;22.014;2023-03-15T02:36:23;97893.80;;;11.05;60.13
65010;BME280;51556;50.002;22.014;2023-03-15T02:38:49;97900.20;;;11.04;60.50
65010;BME280;51556;50.002;22.014;2023-03-15T02:41:18;97908.61;;;10.87;61.22
65010;BME280;51556;50.002;22.014;2023-03-15T02:43:48;97915.57;;;10.92;60.40
65010;BME280;51556;50.002;22.014;2023-03-15T02:46:16;97924.17;;;10.75;61.85
65010;BME280;51556;50.002;22.014;2023-03-15T02:48:43;97924.11;;;10.77;61.83
65010;BME280;51556;50.002;22.014;2023-03-15T02:51:22;97926.90;;;10.69;62.29
65010;BME280;51556;50.002;22.014;2023-03-15T02:53:48;97931.36;;;10.61;62.98
65010;BME280;51556;50.002;22.014;2023-03-15T02:56:14;97933.40;;;10.55;63.36
65010;BME280;51556;50.002;22.014;2023-03-15T02:58:40;97944.70;;;10.58;62.75
65010;BME280;51556;50.002;22.014;2023-03-15T03:01:06;97968.34;;;10.46;62.74
65010;BME280;51556;50.002;22.014;2023-03-15T03:03:32;97984.61;;;10.13;62.99
65010;BME280;51556;50.002;22.014;2023-03-15T03:05:58;97986.19;;;10.05;62.59
65010;BME280;51556;50.002;22.014;2023-03-15T03:08:23;98002.86;;;9.78;62.50
65010;BME280;51556;50.002;22.014;2023-03-15T03:10:48;98019.48;;;9.56;62.93
65010;BME280;51556;50.002;22.014;2023-03-15T03:13:14;98017.21;;;9.35;62.71
65010;BME280;51556;50.002;22.014;2023-03-15T03:15:39;98026.02;;;9.22;63.07
65010;BME280;51556;50.002;22.014;2023-03-15T03:18:09;98033.64;;;9.03;63.35
65010;BME280;51556;50.002;22.014;2023-03-15T03:20:35;98049.02;;;8.79;63.87
65010;BME280;51556;50.002;22.014;2023-03-15T03:23:00;98058.16;;;8.74;63.75
65010;BME280;51556;50.002;22.014;2023-03-15T03:25:31;98067.24;;;8.65;64.26
65010;BME280;51556;50.002;22.014;2023-03-15T03:27:57;98068.27;;;8.53;64.29
65010;BME280;51556;50.002;22.014;2023-03-15T03:30:22;98076.74;;;8.51;63.81
65010;BME280;51556;50.002;22.014;2023-03-15T03:32:48;98088.96;;;8.48;64.17
65010;BME280;51556;50.002;22.014;2023-03-15T03:35:14;98107.30;;;8.41;63.78
65010;BME280;51556;50.002;22.014;2023-03-15T03:37:39;98121.52;;;8.25;64.38
65010;BME280;51556;50.002;22.014;2023-03-15T03:40:05;98129.39;;;7.85;65.35
65010;BME280;51556;50.002;22.014;2023-03-15T03:42:33;98136.70;;;7.61;65.71
65010;BME280;51556;50.002;22.014;2023-03-15T03:44:58;98146.20;;;7.49;65.55
65010;BME280;51556;50.002;22.014;2023-03-15T03:47:24;98152.98;;;7.40;65.58
65010;BME280;51556;50.002;22.014;2023-03-15T03:49:49;98159.38;;;7.20;66.17
65010;BME280;51556;50.002;22.014;2023-03-15T03:52:15;98164.65;;;7.19;65.88
65010;BME280;51556;50.002;22.014;2023-03-15T03:54:40;98166.11;;;7.18;65.70
65010;BME280;51556;50.002;22.014;2023-03-15T03:57:07;98170.56;;;7.21;65.36
65010;BME280;51556;50.002;22.014;2023-03-15T03:59:33;98173.20;;;7.20;65.37
65010;BME280;51556;50.002;22.014;2023-03-15T04:01:58;98185.55;;;7.00;66.21
65010;BME280;51556;50.002;22.014;2023-03-15T04:04:24;98191.80;;;6.84;66.77
65010;BME280;51556;50.002;22.014;2023-03-15T04:06:51;98206.04;;;6.82;66.35
65010;BME280;51556;50.002;22.014;2023-03-15T04:09:16;98209.02;;;6.75;66.29
65010;BME280;51556;50.002;22.014;2023-03-15T04:11:42;98214.27;;;6.62;66.29
65010;BME280;51556;50.002;22.014;2023-03-15T04:14:12;98220.98;;;6.53;66.63
65010;BME280;51556;50.002;22.014;2023-03-15T04:16:38;98230.45;;;6.46;66.42
65010;BME280;51556;50.002;22.014;2023-03-15T04:19:05;98232.90;;;6.40;66.86
65010;BME280;51556;50.002;22.014;2023-03-15T04:21:30;98234.66;;;6.33;66.88
65010;BME280;51556;50.002;22.014;2023-03-15T04:24:00;98245.86;;;6.26;67.01
65010;BME280;51556;50.002;22.014;2023-03-15T04:26:30;98254.15;;;6.24;66.64
65010;BME280;51556;50.002;22.014;2023-03-15T04:28:57;98259.33;;;6.19;67.15
65010;BME280;51556;50.002;22.014;2023-03-15T04:31:23;98263.07;;;6.16;66.55
65010;BME280;51556;50.002;22.014;2023-03-15T04:33:54;98262.73;;;6.01;66.59
65010;BME280;51556;50.002;22.014;2023-03-15T04:36:21;98265.86;;;5.94;66.60
65010;BME280;51556;50.002;22.014;2023-03-15T04:38:47;98261.69;;;5.87;66.38
65010;BME280;51556;50.002;22.014;2023-03-15T04:41:14;98261.35;;;5.85;66.29
65010;BME280;51556;50.002;22.014;2023-03-15T04:43:40;98261.45;;;5.89;66.19
65010;BME280;51556;50.002;22.014;2023-03-15T04:46:05;98269.05;;;5.86;66.12
65010;BME280;51556;50.002;22.014;2023-03-15T04:48:31;98275.40;;;5.91;65.92
65010;BME280;51556;50.002;22.014;2023-03-15T04:50:57;98279.09;;;5.96;66.15
65010;BME280;51556;50.002;22.014;2023-03-15T04:53:22;98282.09;;;6.02;65.91
65010;BME280;51556;50.002;22.014;2023-03-15T04:55:47;98288.58;;;6.02;66.17
65010;BME280;51556;50.002;22.014;2023-03-15T04:58:13;98290.19;;;5.93;66.94
65010;BME280;51556;50.002;22.014;2023-03-15T05:00:38;98293.08;;;5.89;66.83
65010;BME280;51556;50.002;22.014;2023-03-15T05:03:04;98298.23;;;5.93;66.93
65010;BME280;51556;50.002;22.014;2023-03-15T05:05:31;98298.17;;;5.94;66.79
65010;BME280;51556;50.002;22.014;2023-03-15T05:07:57;98306.61;;;5.93;66.84
65010;BME280;51556;50.002;22.014;2023-03-15T05:10:23;98308.11;;;5.88;66.98
65010;BME280;51556;50.002;22.014;2023-03-15T05:12:50;98304.43;;;5.80;66.70
65010;BME280;51556;50.002;22.014;2023-03-15T05:15:16;98302.59;;;5.77;66.44
65010;BME280;51556;50.002;22.014;2023-03-15T05:17:41;98304.85;;;5.70;67.06
65010;BME280;51556;50.002;22.014;2023-03-15T05:20:11;98297.02;;;5.68;66.99
65010;BME280;51556;50.002;22.014;2023-03-15T05:22:38;98296.52;;;5.60;67.36
65010;BME280;51556;50.002;22.014;2023-03-15T05:25:04;98293.63;;;5.56;67.06
65010;BME280;51556;50.002;22.014;2023-03-15T05:27:29;98298.21;;;5.55;67.38
65010;BME280;51556;50.002;22.014;2023-03-15T05:29:59;98300.73;;;5.52;67.23
65010;BME280;51556;50.002;22.014;2023-03-15T05:32:31;98301.09;;;5.51;67.46
65010;BME280;51556;50.002;22.014;2023-03-15T05:35:00;98305.35;;;5.48;67.17
65010;BME280;51556;50.002;22.014;2023-03-15T05:37:25;98310.52;;;5.52;67.01
65010;BME280;51556;50.002;22.014;2023-03-15T05:39:51;98313.98;;;5.53;66.57
65010;BME280;51556;50.002;22.014;2023-03-15T05:42:16;98319.56;;;5.44;66.78
65010;BME280;51556;50.002;22.014;2023-03-15T05:44:49;98324.80;;;5.35;67.42
65010;BME280;51556;50.002;22.014;2023-03-15T05:47:15;98329.25;;;5.31;67.21
65010;BME280;51556;50.002;22.014;2023-03-15T05:49:40;98336.86;;;5.35;67.06
65010;BME280;51556;50.002;22.014;2023-03-15T05:52:06;98334.54;;;5.29;67.10
65010;BME280;51556;50.002;22.014;2023-03-15T05:54:31;98336.92;;;5.23;67.48
65010;BME280;51556;50.002;22.014;2023-03-15T05:56:57;98339.89;;;5.23;67.84
65010;BME280;51556;50.002;22.014;2023-03-15T05:59:22;98345.09;;;5.24;67.69
65010;BME280;51556;50.002;22.014;2023-03-15T06:01:47;98347.38;;;5.32;67.32
65010;BME280;51556;50.002;22.014;2023-03-15T06:04:13;98355.32;;;5.36;67.67
65010;BME280;51556;50.002;22.014;2023-03-15T06:06:38;98358.45;;;5.37;67.51
65010;BME280;51556;50.002;22.014;2023-03-15T06:09:04;98369.18;;;5.33;67.28
65010;BME280;51556;50.002;22.014;2023-03-15T06:11:29;98376.58;;;5.29;67.20
65010;BME280;51556;50.002;22.014;2023-03-15T06:13:55;98386.16;;;5.30;67.25
65010;BME280;51556;50.002;22.014;2023-03-15T06:16:20;98395.74;;;5.31;67.16
65010;BME280;51556;50.002;22.014;2023-03-15T06:18:46;98401.55;;;5.29;67.26
65010;BME280;51556;50.002;22.014;2023-03-15T06:21:11;98404.05;;;5.25;66.97
65010;BME280;51556;50.002;22.014;2023-03-15T06:23:37;98406.81;;;5.27;67.08
65010;BME280;51556;50.002;22.014;2023-03-15T06:26:02;98408.90;;;5.27;66.52
65010;BME280;51556;50.002;22.014;2023-03-15T06:28:27;98415.17;;;5.28;66.11
65010;BME280;51556;50.002;22.014;2023-03-15T06:30:53;98423.27;;;5.24;66.54
65010;BME280;51556;50.002;22.014;2023-03-15T06:33:18;98430.18;;;5.18;66.27
65010;BME280;51556;50.002;22.014;2023-03-15T06:35:44;98428.66;;;5.17;66.23
65010;BME280;51556;50.002;22.014;2023-03-15T06:38:11;98434.32;;;5.13;66.22
65010;BME280;51556;50.002;22.014;2023-03-15T06:40:38;98436.29;;;5.10;66.16
65010;BME280;51556;50.002;22.014;2023-03-15T06:43:03;98445.89;;;5.09;66.20
65010;BME280;51556;50.002;22.014;2023-03-15T06:45:31;98451.00;;;5.07;66.28
65010;BME280;51556;50.002;22.014;2023-03-15T06:47:57;98451.59;;;5.03;66.63
65010;BME280;51556;50.002;22.014;2023-03-15T06:50:22;98454.86;;;5.06;66.67
65010;BME280;51556;50.002;22.014;2023-03-15T06:52:48;98461.80;;;5.07;66.99
65010;BME280;51556;50.002;22.014;2023-03-15T06:55:13;98463.42;;;5.04;66.79
65010;BME280;51556;50.002;22.014;2023-03-15T06:57:43;98465.61;;;4.98;66.98
65010;BME280;51556;50.002;22.014;2023-03-15T07:00:09;98464.82;;;4.94;66.94
65010;BME280;51556;50.002;22.014;2023-03-15T07:02:36;98466.08;;;4.91;67.50
65010;BME280;51556;50.002;22.014;2023-03-15T07:05:03;98464.54;;;4.89;67.66
65010;BME280;51556;50.002;22.014;2023-03-15T07:07:28;98472.00;;;4.92;66.96
65010;BME280;51556;50.002;22.014;2023-03-15T07:09:54;98473.03;;;4.93;67.10
65010;BME280;51556;50.002;22.014;2023-03-15T07:12:19;98470.98;;;4.90;66.93
65010;BME280;51556;50.002;22.014;2023-03-15T07:14:45;98475.84;;;4.92;66.67
65010;BME280;51556;50.002;22.014;2023-03-15T07:17:11;98481.02;;;4.94;66.79
65010;BME280;51556;50.002;22.014;2023-03-15T07:19:37;98481.83;;;4.99;66.62
65010;BME280;51556;50.002;22.014;2023-03-15T07:22:02;98486.33;;;5.01;66.28
65010;BME280;51556;50.002;22.014;2023-03-15T07:24:28;98483.71;;;5.01;66.51
65010;BME280;51556;50.002;22.014;2023-03-15T07:26:54;98491.61;;;4.98;66.39
65010;BME280;51556;50.002;22.014;2023-03-15T07:29:22;98493.27;;;4.92;66.42
65010;BME280;51556;50.002;22.014;2023-03-15T07:31:48;98495.92;;;4.90;66.46
65010;BME280;51556;50.002;22.014;2023-03-15T07:34:14;98504.50;;;4.88;66.61
65010;BME280;51556;50.002;22.014;2023-03-15T07:36:40;98502.40;;;4.89;66.67
65010;BME280;51556;50.002;22.014;2023-03-15T07:39:05;98504.29;;;4.90;66.59
65010;BME280;51556;50.002;22.014;2023-03-15T07:41:31;98506.15;;;4.94;66.70
65010;BME280;51556;50.002;22.014;2023-03-15T07:43:56;98506.66;;;4.94;66.84
65010;BME280;51556;50.002;22.014;2023-03-15T07:46:22;98514.20;;;4.92;66.81
65010;BME280;51556;50.002;22.014;2023-03-15T07:48:47;98516.95;;;4.95;66.90
65010;BME280;51556;50.002;22.014;2023-03-15T07:51:13;98527.73;;;4.98;66.78
65010;BME280;51556;50.002;22.014;2023-03-15T07:53:38;98534.45;;;5.02;66.63
65010;BME280;51556;50.002;22.014;2023-03-15T07:56:04;98544.17;;;5.05;67.13
65010;BME280;51556;50.002;22.014;2023-03-15T07:58:30;98550.48;;;5.03;67.03
65010;BME280;51556;50.002;22.014;2023-03-15T08:00:56;98554.90;;;5.00;67.22
65010;BME280;51556;50.002;22.014;2023-03-15T08:03:23;98550.48;;;5.02;67.43
65010;BME280;51556;50.002;22.014;2023-03-15T08:05:49;98553.61;;;5.04;67.79
65010;BME280;51556;50.002;22.014;2023-03-15T08:08:15;98561.96;;;5.05;67.15
65010;BME280;51556;50.002;22.014;2023-03-15T08:10:42;98562.92;;;5.11;67.35
65010;BME280;51556;50.002;22.014;2023-03-15T08:13:08;98563.20;;;5.15;67.32
65010;BME280;51556;50.002;22.014;2023-03-15T08:15:34;98566.45;;;5.19;67.66
65010;BME280;51556;50.002;22.014;2023-03-15T08:17:59;98577.23;;;5.11;67.84
65010;BME280;51556;50.002;22.014;2023-03-15T08:20:25;98574.70;;;5.04;68.06
65010;BME280;51556;50.002;22.014;2023-03-15T08:22:51;98577.01;;;5.02;68.21
65010;BME280;51556;50.002;22.014;2023-03-15T08:25:20;98578.83;;;5.09;68.05
65010;BME280;51556;50.002;22.014;2023-03-15T08:27:48;98576.79;;;5.17;67.99
65010;BME280;51556;50.002;22.014;2023-03-15T08:30:15;98581.75;;;5.21;67.68
65010;BME280;51556;50.002;22.014;2023-03-15T08:32:42;98582.85;;;5.28;67.28
65010;BME280;51556;50.002;22.014;2023-03-15T08:35:08;98592.22;;;5.31;67.48
65010;BME280;51556;50.002;22.014;2023-03-15T08:37:34;98596.25;;;5.30;67.34
65010;BME280;51556;50.002;22.014;2023-03-15T08:39:59;98600.64;;;5.29;67.42
65010;BME280;51556;50.002;22.014;2023-03-15T08:42:29;98606.43;;;5.27;67.88
65010;BME280;51556;50.002;22.014;2023-03-15T08:44:55;98608.21;;;5.24;67.52
65010;BME280;51556;50.002;22.014;2023-03-15T08:47:24;98618.50;;;5.25;67.83
65010;BME280;51556;50.002;22.014;2023-03-15T08:49:49;98621.58;;;5.29;67.63
65010;BME280;51556;50.002;22.014;2023-03-15T08:52:20;98622.92;;;5.32;67.84
65010;BME280;51556;50.002;22.014;2023-03-15T08:54:47;98625.31;;;5.35;68.05
65010;BME280;51556;50.002;22.014;2023-03-15T08:57:12;98625.89;;;5.31;68.00
65010;BME280;51556;50.002;22.014;2023-03-15T08:59:38;98632.89;;;5.30;68.27
65010;BME280;51556;50.002;22.014;2023-03-15T09:02:04;98639.41;;;5.27;68.21
65010;BME280;51556;50.002;22.014;2023-03-15T09:04:31;98644.50;;;5.25;68.52
65010;BME280;51556;50.002;22.014;2023-03-15T09:06:57;98646.09;;;5.23;68.45
65010;BME280;51556;50.002;22.014;2023-03-15T09:09:22;98646.68;;;5.20;68.50
65010;BME280;51556;50.002;22.014;2023-03-15T09:11:48;98648.23;;;5.10;68.63
65010;BME280;51556;50.002;22.014;2023-03-15T09:14:14;98652.40;;;5.00;69.44
65010;BME280;51556;50.002;22.014;2023-03-15T09:16:39;98652.64;;;4.94;69.48
65010;BME280;51556;50.002;22.014;2023-03-15T09:19:05;98650.93;;;4.91;69.57
65010;BME280;51556;50.002;22.014;2023-03-15T09:21:30;98648.19;;;4.88;69.41
65010;BME280;51556;50.002;22.014;2023-03-15T09:23:56;98651.71;;;4.86;69.92
65010;BME280;51556;50.002;22.014;2023-03-15T09:26:21;98653.84;;;4.84;70.08
65010;BME280;51556;50.002;22.014;2023-03-15T09:28:47;98654.09;;;4.80;70.15
65010;BME280;51556;50.002;22.014;2023-03-15T09:31:13;98658.83;;;4.77;70.65
65010;BME280;51556;50.002;22.014;2023-03-15T09:33:38;98657.98;;;4.75;70.40
65010;BME280;51556;50.002;22.014;2023-03-15T09:36:04;98655.36;;;4.76;70.01
65010;BME280;51556;50.002;22.014;2023-03-15T09:38:30;98661.14;;;4.85;70.38
65010;BME280;51556;50.002;22.014;2023-03-15T09:40:59;98659.39;;;4.86;70.52
65010;BME280;51556;50.002;22.014;2023-03-15T09:46:06;98667.41;;;4.75;70.65
65010;BME280;51556;50.002;22.014;2023-03-15T09:48:37;98662.27;;;4.67;70.56
65010;BME280;51556;50.002;22.014;2023-03-15T09:51:09;98663.78;;;4.57;70.84
65010;BME280;51556;50.002;22.014;2023-03-15T09:53:39;98664.76;;;4.48;71.06
65010;BME280;51556;50.002;22.014;2023-03-15T09:59:16;98667.66;;;4.41;72.05
65010;BME280;51556;50.002;22.014;2023-03-15T10:01:46;98665.11;;;4.34;71.84
65010;BME280;51556;50.002;22.014;2023-03-15T10:04:18;98665.30;;;4.33;72.10
65010;BME280;51556;50.002;22.014;2023-03-15T10:06:54;98671.50;;;4.40;71.67
65010;BME280;51556;50.002;22.014;2023-03-15T10:09:22;98679.23;;;4.47;72.38
65010;BME280;51556;50.002;22.014;2023-03-15T10:14:39;98673.17;;;4.46;71.22
65010;BME280;51556;50.002;22.014;2023-03-15T10:17:12;98677.35;;;4.45;71.03
65010;BME280;51556;50.002;22.014;2023-03-15T10:19:55;98683.42;;;4.46;71.18
65010;BME280;51556;50.002;22.014;2023-03-15T10:22:55;98682.67;;;4.51;71.60
65010;BME280;51556;50.002;22.014;2023-03-15T10:25:25;98685.81;;;4.51;71.28
65010;BME280;51556;50.002;22.014;2023-03-15T10:30:22;98683.52;;;4.53;71.02
65010;BME280;51556;50.002;22.014;2023-03-15T10:33:15;98687.05;;;4.64;71.50
65010;BME280;51556;50.002;22.014;2023-03-15T10:35:43;98681.02;;;4.73;71.16
65010;BME280;51556;50.002;22.014;2023-03-15T10:38:16;98681.78;;;4.82;70.82
65010;BME280;51556;50.002;22.014;2023-03-15T10:45:41;98684.42;;;4.91;70.66
65010;BME280;51556;50.002;22.014;2023-03-15T10:48:07;98689.59;;;4.96;70.64
65010;BME280;51556;50.002;22.014;2023-03-15T10:50:34;98689.38;;;4.99;70.46
65010;BME280;51556;50.002;22.014;2023-03-15T10:53:08;98689.14;;;5.04;70.03
65010;BME280;51556;50.002;22.014;2023-03-15T10:55:41;98688.68;;;5.12;69.94
65010;BME280;51556;50.002;22.014;2023-03-15T10:58:18;98690.45;;;5.21;69.87
65010;BME280;51556;50.002;22.014;2023-03-15T11:00:53;98690.65;;;5.30;69.08
65010;BME280;51556;50.002;22.014;2023-03-15T11:03:24;98691.48;;;5.34;68.83
65010;BME280;51556;50.002;22.014;2023-03-15T11:05:52;98685.09;;;5.41;69.05
65010;BME280;51556;50.002;22.014;2023-03-15T11:08:21;98684.60;;;5.51;69.32
65010;BME280;51556;50.002;22.014;2023-03-15T11:10:55;98687.98;;;5.66;69.27
65010;BME280;51556;50.002;22.014;2023-03-15T11:13:25;98699.73;;;5.75;68.51
65010;BME280;51556;50.002;22.014;2023-03-15T11:18:24;98701.35;;;5.93;69.14
65010;BME280;51556;50.002;22.014;2023-03-15T11:20:50;98702.73;;;6.05;68.37
65010;BME280;51556;50.002;22.014;2023-03-15T11:23:25;98701.61;;;6.09;67.77
65010;BME280;51556;50.002;22.014;2023-03-15T11:25:52;98698.98;;;6.10;67.18
65010;BME280;51556;50.002;22.014;2023-03-15T11:28:22;98700.02;;;6.10;65.10
65010;BME280;51556;50.002;22.014;2023-03-15T11:30:49;98695.70;;;6.07;63.75
65010;BME280;51556;50.002;22.014;2023-03-15T11:36:06;98697.67;;;6.14;63.79
65010;BME280;51556;50.002;22.014;2023-03-15T11:38:38;98699.20;;;6.17;62.09
65010;BME280;51556;50.002;22.014;2023-03-15T11:44:04;98712.58;;;6.21;61.53
65010;BME280;51556;50.002;22.014;2023-03-15T11:46:51;98712.38;;;6.23;62.07
65010;BME280;51556;50.002;22.014;2023-03-15T11:49:34;98709.48;;;6.28;61.54
65010;BME280;51556;50.002;22.014;2023-03-15T11:52:01;98714.33;;;6.30;60.94
65010;BME280;51556;50.002;22.014;2023-03-15T11:54:30;98713.33;;;6.29;60.76
65010;BME280;51556;50.002;22.014;2023-03-15T11:59:55;98721.30;;;6.40;60.96
65010;BME280;51556;50.002;22.014;2023-03-15T12:04:54;98723.47;;;6.46;59.49
65010;BME280;51556;50.002;22.014;2023-03-15T12:09:52;98727.20;;;6.52;58.95
65010;BME280;51556;50.002;22.014;2023-03-15T12:15:00;98727.73;;;6.52;57.37
65010;BME280;51556;50.002;22.014;2023-03-15T12:19:59;98720.23;;;6.59;57.05
65010;BME280;51556;50.002;22.014;2023-03-15T12:22:29;98718.81;;;6.60;56.37
65010;BME280;51556;50.002;22.014;2023-03-15T12:24:58;98719.53;;;6.60;56.19
65010;BME280;51556;50.002;22.014;2023-03-15T12:27:28;98725.59;;;6.63;55.93
65010;BME280;51556;50.002;22.014;2023-03-15T12:30:00;98725.30;;;6.68;56.51
65010;BME280;51556;50.002;22.014;2023-03-15T12:32:28;98727.80;;;6.74;56.34
65010;BME280;51556;50.002;22.014;2023-03-15T12:35:06;98730.05;;;6.84;56.79
65010;BME280;51556;50.002;22.014;2023-03-15T12:37:51;98730.89;;;6.94;56.53
65010;BME280;51556;50.002;22.014;2023-03-15T12:50:49;98740.09;;;7.21;54.86
65010;BME280;51556;50.002;22.014;2023-03-15T12:55:49;98739.88;;;7.39;54.12
65010;BME280;51556;50.002;22.014;2023-03-15T12:58:17;98738.37;;;7.51;54.59
65010;BME280;51556;50.002;22.014;2023-03-15T13:00:43;98731.51;;;7.60;54.29
65010;BME280;51556;50.002;22.014;2023-03-15T13:03:14;98736.56;;;7.68;54.61
65010;BME280;51556;50.002;22.014;2023-03-15T13:05:57;98741.01;;;7.73;53.59
65010;BME280;51556;50.002;22.014;2023-03-15T13:08:30;98742.05;;;7.80;53.22
65010;BME280;51556;50.002;22.014;2023-03-15T13:16:41;98749.06;;;8.01;51.85
65010;BME280;51556;50.002;22.014;2023-03-15T13:19:22;98747.61;;;8.04;52.59
65010;BME280;51556;50.002;22.014;2023-03-15T13:24:28;98747.23;;;8.19;52.15
65010;BME280;51556;50.002;22.014;2023-03-15T13:27:02;98750.54;;;8.25;51.23
65010;BME280;51556;50.002;22.014;2023-03-15T13:29:33;98757.80;;;8.30;49.80
65010;BME280;51556;50.002;22.014;2023-03-15T13:32:15;98756.48;;;8.34;49.97
65010;BME280;51556;50.002;22.014;2023-03-15T13:34:43;98755.63;;;8.34;49.86
65010;BME280;51556;50.002;22.014;2023-03-15T13:37:15;98763.64;;;8.36;48.96
65010;BME280;51556;50.002;22.014;2023-03-15T13:39:58;98768.83;;;8.31;48.37
65010;BME280;51556;50.002;22.014;2023-03-15T13:42:24;98771.12;;;8.23;48.91
65010;BME280;51556;50.002;22.014;2023-03-15T13:47:31;98770.08;;;8.17;48.66
65010;BME280;51556;50.002;22.014;2023-03-15T13:49:56;98775.23;;;8.14;49.23
65010;BME280;51556;50.002;22.014;2023-03-15T13:52:22;98773.17;;;8.12;48.05
65010;BME280;51556;50.002;22.014;2023-03-15T13:54:48;98776.58;;;8.02;48.15
65010;BME280;51556;50.002;22.014;2023-03-15T13:57:21;98776.35;;;7.96;48.13
65010;BME280;51556;50.002;22.014;2023-03-15T14:00:00;98777.55;;;7.90;48.26
65010;BME280;51556;50.002;22.014;2023-03-15T14:02:42;98781.48;;;7.87;48.14
65010;BME280;51556;50.002;22.014;2023-03-15T14:05:14;98788.25;;;7.90;48.78
65010;BME280;51556;50.002;22.014;2023-03-15T14:07:44;98788.86;;;7.86;48.11
65010;BME280;51556;50.002;22.014;2023-03-15T14:10:22;98789.95;;;7.84;48.07